createdAt,value
2023-08-12T00:04:16.545Z,6.60
2023-08-12T00:09:19.384Z,6.70
2023-08-12T00:14:22.195Z,8.20
2023-08-12T00:19:28.740Z,14.40
2023-08-12T00:24:31.783Z,8.50
2023-08-12T00:29:34.569Z,6.60
2023-08-12T00:34:37.755Z,8.60
2023-08-12T00:39:40.642Z,7.60
2023-08-12T00:44:43.468Z,6.80
2023-08-12T00:49:46.900Z,9.40
2023-08-12T00:54:49.802Z,9.10
2023-08-12T00:59:52.855Z,8.30
2023-08-12T01:04:55.662Z,10.20
2023-08-12T01:09:58.517Z,9.70
2023-08-12T01:15:18.397Z,8.50
2023-08-12T01:20:28.425Z,6.20
2023-08-12T01:25:31.155Z,6.90
2023-08-12T01:30:38.995Z,7.00
2023-08-12T01:35:50.475Z,7.20
2023-08-12T01:40:53.685Z,10.10
2023-08-12T01:45:56.704Z,7.10
2023-08-12T01:50:59.961Z,8.60
2023-08-12T01:56:02.747Z,4.70
2023-08-12T02:01:05.499Z,7.10
2023-08-12T02:06:08.362Z,6.90
2023-08-12T02:11:11.548Z,9.00
2023-08-12T02:16:14.311Z,5.60
2023-08-12T02:21:17.717Z,10.40
2023-08-12T02:26:21.832Z,8.10
2023-08-12T02:31:24.649Z,10.70
2023-08-12T02:36:28.067Z,7.40
2023-08-12T02:41:30.888Z,8.40
2023-08-12T02:46:33.710Z,8.30
2023-08-12T02:51:37.434Z,7.70
2023-08-12T02:56:41.317Z,6.70
2023-08-12T03:01:44.164Z,7.50
2023-08-12T03:06:47.477Z,7.80
2023-08-12T03:11:51.228Z,7.40
2023-08-12T03:16:54.065Z,7.40
2023-08-12T03:21:56.870Z,7.70
2023-08-12T03:26:59.691Z,7.30
2023-08-12T03:32:02.584Z,7.70
2023-08-12T03:37:05.634Z,7.60
2023-08-12T03:42:08.479Z,6.00
2023-08-12T03:47:12.251Z,7.40
2023-08-12T03:52:15.546Z,7.80
2023-08-12T03:57:18.290Z,6.50
2023-08-12T04:02:21.125Z,7.90
2023-08-12T04:07:24.011Z,5.90
2023-08-12T04:12:26.833Z,8.40
2023-08-12T04:17:29.596Z,7.10
2023-08-12T04:22:32.417Z,6.50
2023-08-12T04:27:35.578Z,9.90
2023-08-12T04:32:38.401Z,7.90
2023-08-12T04:37:41.618Z,8.70
2023-08-12T04:42:44.342Z,6.70
2023-08-12T04:47:47.319Z,7.30
2023-08-12T04:52:51.270Z,8.90
2023-08-12T04:57:55.137Z,7.00
2023-08-12T05:02:58.103Z,7.70
2023-08-12T05:08:01.413Z,9.40
2023-08-12T05:13:04.468Z,7.60
2023-08-12T05:18:07.623Z,8.80
2023-08-12T05:23:10.524Z,8.40
2023-08-12T05:28:13.323Z,8.20
2023-08-12T05:33:16.422Z,8.80
2023-08-12T05:38:19.291Z,8.70
2023-08-12T05:43:22.097Z,13.30
2023-08-12T05:48:25.213Z,12.50
2023-08-12T05:53:28.070Z,12.90
2023-08-12T05:58:30.853Z,13.30
2023-08-12T06:03:33.661Z,11.70
2023-08-12T06:08:36.913Z,12.00
2023-08-12T06:13:39.685Z,10.00
2023-08-12T06:18:42.438Z,9.50
2023-08-12T06:23:45.390Z,7.50
2023-08-12T06:28:48.115Z,7.30
2023-08-12T06:33:50.867Z,7.20
2023-08-12T06:38:54.158Z,10.40
2023-08-12T06:43:57.399Z,14.50
2023-08-12T06:49:00.761Z,9.20
2023-08-12T06:54:03.787Z,11.40
2023-08-12T06:59:07.145Z,8.40
2023-08-12T07:04:10.018Z,13.00
2023-08-12T07:09:13.033Z,8.10
2023-08-12T07:14:17.175Z,10.40
2023-08-12T07:19:20.412Z,7.40
2023-08-12T07:24:23.962Z,7.30
2023-08-12T07:29:27.243Z,8.20
2023-08-12T07:34:31.500Z,4.70
2023-08-12T07:39:35.168Z,6.50
2023-08-12T07:44:38.057Z,6.00
2023-08-12T07:49:42.874Z,6.00
2023-08-12T07:54:45.995Z,5.40
2023-08-12T07:59:50.388Z,5.20
2023-08-12T08:04:53.338Z,5.40
2023-08-12T08:09:59.394Z,4.60
2023-08-12T08:15:04.358Z,5.50
2023-08-12T08:20:08.025Z,4.10
2023-08-12T08:25:11.526Z,4.00
2023-08-12T08:30:14.570Z,5.00
2023-08-12T08:35:17.741Z,3.50
2023-08-12T08:40:21.873Z,5.10
2023-08-12T08:45:26.706Z,4.90
2023-08-12T08:50:33.534Z,4.80
2023-08-12T08:55:38.674Z,4.10
2023-08-12T09:00:42.724Z,5.70
2023-08-12T09:05:54.024Z,7.20
2023-08-12T09:10:58.540Z,4.10
2023-08-12T09:16:02.389Z,4.90
2023-08-12T09:21:06.743Z,4.80
2023-08-12T09:26:19.217Z,3.90
2023-08-12T09:31:27.957Z,5.10
2023-08-12T09:36:32.222Z,5.10
2023-08-12T09:41:36.873Z,5.00
2023-08-12T09:46:40.211Z,3.80
2023-08-12T09:51:45.952Z,5.60
2023-08-12T09:56:50.463Z,6.60
2023-08-12T10:01:56.915Z,6.20
2023-08-12T10:07:01.743Z,6.10
2023-08-12T10:12:06.911Z,5.30
2023-08-12T10:17:11.009Z,5.20
2023-08-12T10:22:15.985Z,3.80
2023-08-12T10:27:19.805Z,3.30
2023-08-12T10:32:22.967Z,5.20
2023-08-12T10:37:27.672Z,3.80
2023-08-12T10:42:48.251Z,5.10
2023-08-12T10:48:00.836Z,6.10
2023-08-12T10:53:33.144Z,5.00
2023-08-12T10:58:45.625Z,4.70
2023-08-12T11:03:51.793Z,5.80
2023-08-12T11:08:55.049Z,4.60
2023-08-12T11:13:58.420Z,5.90
2023-08-12T11:19:01.310Z,4.90
2023-08-12T11:24:05.574Z,5.20
2023-08-12T11:29:12.557Z,4.60
2023-08-12T11:34:16.928Z,3.90
2023-08-12T11:39:19.960Z,5.10
2023-08-12T11:44:24.214Z,5.70
2023-08-12T11:49:26.988Z,4.50
2023-08-12T11:54:30.269Z,3.60
2023-08-12T11:59:33.286Z,5.80
2023-08-12T12:04:36.233Z,4.00
2023-08-12T12:09:43.947Z,4.30
2023-08-12T12:14:48.218Z,4.70
2023-08-12T12:19:59.876Z,4.70
2023-08-12T12:25:11.469Z,5.20
2023-08-12T12:30:16.418Z,4.80
2023-08-12T12:35:20.063Z,4.90
2023-08-12T12:40:22.988Z,5.30
2023-08-12T12:45:29.181Z,7.90
2023-08-12T12:50:34.633Z,5.80
2023-08-12T12:55:45.627Z,6.30
2023-08-12T13:00:56.702Z,6.70
2023-08-12T13:06:08.696Z,4.00
2023-08-12T13:11:12.590Z,4.40
2023-08-12T13:16:16.094Z,4.80
2023-08-12T13:21:21.100Z,3.30
2023-08-12T13:26:27.401Z,6.10
2023-08-12T13:31:30.701Z,6.50
2023-08-12T13:36:35.683Z,5.60
2023-08-12T13:41:44.846Z,4.10
2023-08-12T13:46:47.801Z,6.00
2023-08-12T13:51:54.025Z,4.40
2023-08-12T13:57:00.798Z,5.00
2023-08-12T14:02:04.162Z,4.90
2023-08-12T14:07:07.450Z,3.30
2023-08-12T14:12:25.216Z,4.90
2023-08-12T14:17:29.196Z,5.30
2023-08-12T14:22:32.494Z,5.70
2023-08-12T14:27:35.608Z,6.90
2023-08-12T14:32:38.496Z,5.40
2023-08-12T14:37:41.424Z,4.70
2023-08-12T14:42:44.208Z,3.70
2023-08-12T14:47:48.707Z,4.10
2023-08-12T14:52:51.484Z,3.60
2023-08-12T14:57:54.239Z,6.50
2023-08-12T15:02:57.010Z,4.20
2023-08-12T15:08:01.056Z,6.50
2023-08-12T15:13:05.653Z,4.70
2023-08-12T15:18:08.584Z,4.80
2023-08-12T15:23:12.048Z,3.40
2023-08-12T15:28:14.968Z,6.30
2023-08-12T15:33:18.068Z,6.20
2023-08-12T15:38:24.989Z,4.00
2023-08-12T15:43:29.199Z,3.80
2023-08-12T15:48:32.218Z,4.80
2023-08-12T15:53:36.579Z,4.70
2023-08-12T15:58:40.338Z,3.40
2023-08-12T16:03:43.526Z,3.90
2023-08-12T16:08:56.882Z,5.20
2023-08-12T16:14:11.344Z,5.20
2023-08-12T16:19:14.857Z,6.10
2023-08-12T16:24:17.703Z,6.60
2023-08-12T16:29:20.570Z,6.40
2023-08-12T16:34:23.905Z,4.60
2023-08-12T16:39:26.669Z,4.40
2023-08-12T16:44:29.819Z,4.00
2023-08-12T16:49:32.616Z,5.70
2023-08-12T16:54:35.449Z,6.30
2023-08-12T16:59:38.298Z,6.10
2023-08-12T17:04:41.521Z,5.50
2023-08-12T17:09:47.229Z,7.20
2023-08-12T17:14:50.582Z,8.40
2023-08-12T17:19:53.355Z,7.40
2023-08-12T17:24:56.175Z,5.50
2023-08-12T17:29:59.007Z,4.80
2023-08-12T17:35:01.872Z,5.70
2023-08-12T17:40:06.871Z,8.00
2023-08-12T17:45:09.792Z,6.50
2023-08-12T17:50:13.233Z,10.70
2023-08-12T17:55:16.200Z,7.50
2023-08-12T18:00:21.414Z,7.60
2023-08-12T18:05:25.117Z,7.50
2023-08-12T18:10:28.433Z,10.50
2023-08-12T18:15:31.275Z,9.50
2023-08-12T18:20:34.141Z,10.20
2023-08-12T18:25:36.955Z,10.20
2023-08-12T18:30:39.757Z,14.60
2023-08-12T18:35:42.601Z,9.70
2023-08-12T18:40:45.365Z,10.10
2023-08-12T18:45:48.109Z,11.70
2023-08-12T18:50:50.931Z,14.40
2023-08-12T18:55:54.138Z,12.80
2023-08-12T19:00:57.008Z,12.80
2023-08-12T19:06:01.055Z,11.80
2023-08-12T19:11:04.460Z,12.50
2023-08-12T19:16:07.270Z,12.70
2023-08-12T19:21:10.141Z,14.80
2023-08-12T19:26:12.873Z,13.50
2023-08-12T19:31:16.350Z,13.60
2023-08-12T19:36:19.130Z,14.60
2023-08-12T19:41:22.607Z,11.90
2023-08-12T19:46:26.108Z,8.30
2023-08-12T19:51:29.950Z,10.40
2023-08-12T19:56:36.379Z,10.70
2023-08-12T20:01:44.040Z,11.00
2023-08-12T20:06:49.142Z,8.50
2023-08-12T20:11:52.329Z,10.40
2023-08-12T20:16:55.400Z,10.30
2023-08-12T20:22:00.439Z,12.10
2023-08-12T20:27:04.092Z,12.80
2023-08-12T20:32:07.018Z,11.10
2023-08-12T20:37:09.960Z,11.90
2023-08-12T20:42:12.721Z,12.60
2023-08-12T20:47:15.926Z,9.50
2023-08-12T20:52:19.032Z,10.70
2023-08-12T20:57:21.756Z,11.20
2023-08-12T21:02:24.546Z,8.20
2023-08-12T21:07:27.659Z,10.60
2023-08-12T21:12:30.421Z,11.10
2023-08-12T21:17:33.275Z,8.70
2023-08-12T21:22:36.030Z,12.50
2023-08-12T21:27:38.791Z,11.30
2023-08-12T21:32:41.652Z,6.30
2023-08-12T21:37:44.455Z,8.90
2023-08-12T21:42:47.495Z,8.30
2023-08-12T21:47:50.388Z,8.00
2023-08-12T21:52:53.223Z,7.90
2023-08-12T21:57:56.029Z,5.40
2023-08-12T22:02:59.334Z,8.60
2023-08-12T22:08:02.705Z,8.40
2023-08-12T22:13:06.329Z,8.60
2023-08-12T22:18:09.265Z,10.00
2023-08-12T22:23:12.155Z,6.20
2023-08-12T22:28:15.096Z,5.90
2023-08-12T22:33:17.878Z,5.90
2023-08-12T22:38:21.116Z,7.80
2023-08-12T22:43:24.039Z,9.30
2023-08-12T22:48:26.930Z,8.10
2023-08-12T22:53:30.036Z,4.20
2023-08-12T22:58:32.948Z,7.20
2023-08-12T23:03:35.821Z,8.30
2023-08-12T23:08:38.592Z,6.10
2023-08-12T23:13:41.351Z,8.40
2023-08-12T23:18:44.448Z,8.50
2023-08-12T23:23:47.281Z,7.80
2023-08-12T23:28:50.089Z,9.80
2023-08-12T23:33:52.860Z,5.30
2023-08-12T23:38:55.698Z,4.30
2023-08-12T23:44:00.259Z,5.90
2023-08-12T23:49:03.085Z,8.70
2023-08-12T23:54:05.833Z,5.80
2023-08-12T23:59:08.580Z,6.60
